sensor_id;sensor_type;location;lat;lon;timestamp;pressure;altitude;pressure_sealevel;temperature;humidity
21960;BME280;11144;43.030;25.108;2023-04-19T00:01:07;98864.31;;;11.93;100.00
21960;BME280;11144;43.030;25.108;2023-04-19T00:02:40;98856.34;;;11.93;100.00
21960;BME280;11144;43.030;25.108;2023-04-19T00:04:14;98857.28;;;11.92;100.00
21960;BME280;11144;43.030;25.108;2023-04-19T00:05:47;98861.66;;;11.93;100.00
21960;BME280;11144;43.030;25.108;2023-04-19T00:07:21;98852.88;;;11.93;100.00
21960;BME280;11144;43.030;25.108;2023-04-19T00:08:54;98858.25;;;11.91;100.00
21960;BME280;11144;43.030;25.108;2023-04-19T00:10:27;98854.03;;;11.87;100.00
21960;BME280;11144;43.030;25.108;2023-04-19T00:12:01;98853.09;;;11.88;100.00
21960;BME280;11144;43.030;25.108;2023-04-19T00:13:35;98843.50;;;11.86;100.00
21960;BME280;11144;43.030;25.108;2023-04-19T00:15:08;98842.78;;;11.82;100.00
21960;BME280;11144;43.030;25.108;2023-04-19T00:16:41;98849.09;;;11.80;100.00
21960;BME280;11144;43.030;25.108;2023-04-19T00:18:15;98841.38;;;11.75;100.00
21960;BME280;11144;43.030;25.108;2023-04-19T00:19:47;98839.81;;;11.71;100.00
21960;BME280;11144;43.030;25.108;2023-04-19T00:21:20;98839.97;;;11.68;100.00
21960;BME280;11144;43.030;25.108;2023-04-19T00:22:53;98831.22;;;11.66;100.00
21960;BME280;11144;43.030;25.108;2023-04-19T00:24:27;98835.19;;;11.56;100.00
21960;BME280;11144;43.030;25.108;2023-04-19T00:26:01;98831.91;;;11.51;100.00
21960;BME280;11144;43.030;25.108;2023-04-19T00:27:34;98838.63;;;11.40;100.00
21960;BME280;11144;43.030;25.108;2023-04-19T00:29:09;98828.16;;;11.38;100.00
21960;BME280;11144;43.030;25.108;2023-04-19T00:30:42;98827.47;;;11.33;100.00
21960;BME280;11144;43.030;25.108;2023-04-19T00:32:16;98833.91;;;11.28;100.00
21960;BME280;11144;43.030;25.108;2023-04-19T00:33:49;98834.94;;;11.25;100.00
21960;BME280;11144;43.030;25.108;2023-04-19T00:35:22;98827.34;;;11.18;100.00
21960;BME280;11144;43.030;25.108;2023-04-19T00:36:56;98835.06;;;11.22;100.00
21960;BME280;11144;43.030;25.108;2023-04-19T00:38:30;98833.34;;;11.21;100.00
21960;BME280;11144;43.030;25.108;2023-04-19T00:40:04;98837.66;;;11.24;100.00
21960;BME280;11144;43.030;25.108;2023-04-19T00:41:40;98841.94;;;11.26;100.00
21960;BME280;11144;43.030;25.108;2023-04-19T00:43:16;98829.63;;;11.25;100.00
21960;BME280;11144;43.030;25.108;2023-04-19T00:44:52;98840.34;;;11.22;100.00
21960;BME280;11144;43.030;25.108;2023-04-19T00:46:25;98835.38;;;11.16;100.00
21960;BME280;11144;43.030;25.108;2023-04-19T00:48:00;98842.22;;;11.20;100.00
21960;BME280;11144;43.030;25.108;2023-04-19T00:49:32;98843.88;;;11.23;100.00
21960;BME280;11144;43.030;25.108;2023-04-19T00:51:06;98841.09;;;11.26;100.00
21960;BME280;11144;43.030;25.108;2023-04-19T00:52:38;98846.38;;;11.26;100.00
21960;BME280;11144;43.030;25.108;2023-04-19T00:54:13;98841.94;;;11.26;100.00
21960;BME280;11144;43.030;25.108;2023-04-19T00:55:47;98841.94;;;11.26;100.00
21960;BME280;11144;43.030;25.108;2023-04-19T00:57:22;98844.50;;;11.28;100.00
21960;BME280;11144;43.030;25.108;2023-04-19T00:58:56;98842.66;;;11.30;100.00
21960;BME280;11144;43.030;25.108;2023-04-19T01:00:32;98841.03;;;11.27;100.00
21960;BME280;11144;43.030;25.108;2023-04-19T01:02:04;98837.50;;;11.27;100.00
21960;BME280;11144;43.030;25.108;2023-04-19T01:03:38;98836.94;;;11.20;100.00
21960;BME280;11144;43.030;25.108;2023-04-19T01:05:12;98830.06;;;11.16;100.00
21960;BME280;11144;43.030;25.108;2023-04-19T01:06:45;98834.56;;;11.14;100.00
21960;BME280;11144;43.030;25.108;2023-04-19T01:08:17;98827.78;;;11.09;100.00
21960;BME280;11144;43.030;25.108;2023-04-19T01:09:51;98829.47;;;11.10;100.00
21960;BME280;11144;43.030;25.108;2023-04-19T01:11:27;98831.28;;;11.09;100.00
21960;BME280;11144;43.030;25.108;2023-04-19T01:12:59;98837.22;;;11.14;100.00
21960;BME280;11144;43.030;25.108;2023-04-19T01:14:33;98838.78;;;11.18;100.00
21960;BME280;11144;43.030;25.108;2023-04-19T01:16:07;98826.50;;;11.17;100.00
21960;BME280;11144;43.030;25.108;2023-04-19T01:17:41;98832.56;;;11.19;100.00
21960;BME280;11144;43.030;25.108;2023-04-19T01:19:14;98828.06;;;11.21;100.00
21960;BME280;11144;43.030;25.108;2023-04-19T01:20:48;98827.94;;;11.24;100.00
21960;BME280;11144;43.030;25.108;2023-04-19T01:22:23;98835.06;;;11.22;100.00
21960;BME280;11144;43.030;25.108;2023-04-19T01:23:56;98824.13;;;11.11;100.00
21960;BME280;11144;43.030;25.108;2023-04-19T01:25:29;98825.19;;;11.07;100.00
21960;BME280;11144;43.030;25.108;2023-04-19T01:27:03;98828.78;;;11.06;100.00
21960;BME280;11144;43.030;25.108;2023-04-19T01:28:37;98832.63;;;10.99;100.00
21960;BME280;11144;43.030;25.108;2023-04-19T01:30:11;98825.63;;;10.98;100.00
21960;BME280;11144;43.030;25.108;2023-04-19T01:32:21;98823.50;;;10.86;100.00
21960;BME280;11144;43.030;25.108;2023-04-19T01:34:08;98824.38;;;10.87;100.00
21960;BME280;11144;43.030;25.108;2023-04-19T01:35:42;98820.03;;;10.86;100.00
21960;BME280;11144;43.030;25.108;2023-04-19T01:37:15;98819.28;;;10.82;100.00
21960;BME280;11144;43.030;25.108;2023-04-19T01:38:49;98823.50;;;10.86;100.00
21960;BME280;11144;43.030;25.108;2023-04-19T01:40:23;98823.44;;;10.88;100.00
21960;BME280;11144;43.030;25.108;2023-04-19T01:41:57;98829.75;;;10.85;100.00
21960;BME280;11144;43.030;25.108;2023-04-19T01:43:30;98820.03;;;10.86;100.00
21960;BME280;11144;43.030;25.108;2023-04-19T01:45:04;98815.75;;;10.83;100.00
21960;BME280;11144;43.030;25.108;2023-04-19T01:46:37;98815.56;;;10.86;100.00
21960;BME280;11144;43.030;25.108;2023-04-19T01:48:10;98817.31;;;10.87;100.00
21960;BME280;11144;43.030;25.108;2023-04-19T01:49:43;98819.91;;;10.89;100.00
21960;BME280;11144;43.030;25.108;2023-04-19T01:51:17;98820.59;;;10.92;100.00
21960;BME280;11144;43.030;25.108;2023-04-19T01:52:52;98818.75;;;10.94;100.00
21960;BME280;11144;43.030;25.108;2023-04-19T01:54:26;98815.38;;;10.91;100.00
21960;BME280;11144;43.030;25.108;2023-04-19T01:55:59;98811.72;;;10.93;100.00
21960;BME280;11144;43.030;25.108;2023-04-19T01:57:32;98816.88;;;10.96;100.00
21960;BME280;11144;43.030;25.108;2023-04-19T01:59:05;98813.16;;;11.00;100.00
21960;BME280;11144;43.030;25.108;2023-04-19T02:00:39;98816.63;;;11.02;100.00
21960;BME280;11144;43.030;25.108;2023-04-19T02:02:12;98815.75;;;11.02;100.00
21960;BME280;11144;43.030;25.108;2023-04-19T02:03:46;98813.03;;;11.03;100.00
21960;BME280;11144;43.030;25.108;2023-04-19T02:05:18;98825.31;;;11.04;100.00
21960;BME280;11144;43.030;25.108;2023-04-19T02:06:52;98818.97;;;11.08;100.00
21960;BME280;11144;43.030;25.108;2023-04-19T02:08:25;98814.59;;;11.07;100.00
21960;BME280;11144;43.030;25.108;2023-04-19T02:10:00;98806.81;;;11.04;100.00
21960;BME280;11144;43.030;25.108;2023-04-19T02:11:33;98816.19;;;11.11;100.00
21960;BME280;11144;43.030;25.108;2023-04-19T02:13:06;98814.41;;;11.12;100.00
21960;BME280;11144;43.030;25.108;2023-04-19T02:14:39;98817.88;;;11.12;100.00
21960;BME280;11144;43.030;25.108;2023-04-19T02:16:13;98817.75;;;11.15;100.00
21960;BME280;11144;43.030;25.108;2023-04-19T02:17:46;98821.19;;;11.17;100.00
21960;BME280;11144;43.030;25.108;2023-04-19T02:19:20;98821.19;;;11.17;100.00
21960;BME280;11144;43.030;25.108;2023-04-19T02:20:53;98825.56;;;11.18;100.00
21960;BME280;11144;43.030;25.108;2023-04-19T02:22:26;98821.34;;;11.14;100.00
21960;BME280;11144;43.030;25.108;2023-04-19T02:24:00;98817.25;;;11.07;100.00
21960;BME280;11144;43.030;25.108;2023-04-19T02:25:35;98818.06;;;11.09;100.00
21960;BME280;11144;43.030;25.108;2023-04-19T02:27:08;98823.47;;;11.06;100.00
21960;BME280;11144;43.030;25.108;2023-04-19T02:28:40;98816.38;;;11.07;100.00
21960;BME280;11144;43.030;25.108;2023-04-19T02:30:14;98825.19;;;11.07;100.00
21960;BME280;11144;43.030;25.108;2023-04-19T02:31:46;98825.19;;;11.07;100.00
21960;BME280;11144;43.030;25.108;2023-04-19T02:33:21;98817.88;;;11.12;100.00
21960;BME280;11144;43.030;25.108;2023-04-19T02:34:53;98822.28;;;11.13;100.00
21960;BME280;11144;43.030;25.108;2023-04-19T02:36:27;98821.34;;;11.14;100.00
21960;BME280;11144;43.030;25.108;2023-04-19T02:37:59;98814.34;;;11.13;100.00
21960;BME280;11144;43.030;25.108;2023-04-19T02:39:32;98819.75;;;11.10;100.00
21960;BME280;11144;43.030;25.108;2023-04-19T02:41:07;98823.19;;;11.12;100.00
21960;BME280;11144;43.030;25.108;2023-04-19T02:42:43;98821.47;;;11.11;100.00
21960;BME280;11144;43.030;25.108;2023-04-19T02:44:16;98818.75;;;11.13;100.00
21960;BME280;11144;43.030;25.108;2023-04-19T02:45:49;98814.34;;;11.13;100.00
21960;BME280;11144;43.030;25.108;2023-04-19T02:47:25;98809.81;;;11.15;100.00
21960;BME280;11144;43.030;25.108;2023-04-19T02:48:59;98815.91;;;11.17;100.00
21960;BME280;11144;43.030;25.108;2023-04-19T02:50:36;98810.88;;;11.11;100.00
21960;BME280;11144;43.030;25.108;2023-04-19T02:52:09;98819.91;;;11.07;100.00
21960;BME280;11144;43.030;25.108;2023-04-19T02:53:45;98817.38;;;11.04;100.00
21960;BME280;11144;43.030;25.108;2023-04-19T02:55:19;98811.19;;;11.05;100.00
21960;BME280;11144;43.030;25.108;2023-04-19T02:57:00;98807.81;;;11.02;100.00
21960;BME280;11144;43.030;25.108;2023-04-19T02:58:33;98810.53;;;11.00;100.00
21960;BME280;11144;43.030;25.108;2023-04-19T03:00:09;98806.16;;;10.99;100.00
21960;BME280;11144;43.030;25.108;2023-04-19T03:01:46;98810.88;;;10.93;100.00
21960;BME280;11144;43.030;25.108;2023-04-19T03:03:19;98808.44;;;10.88;100.00
21960;BME280;11144;43.030;25.108;2023-04-19T03:04:53;98803.28;;;10.85;100.00
21960;BME280;11144;43.030;25.108;2023-04-19T03:06:26;98814.00;;;10.82;100.00
21960;BME280;11144;43.030;25.108;2023-04-19T03:08:00;98803.41;;;10.82;100.00
21960;BME280;11144;43.030;25.108;2023-04-19T03:09:33;98809.56;;;10.83;100.00
21960;BME280;11144;43.030;25.108;2023-04-19T03:11:07;98815.75;;;10.83;100.00
21960;BME280;11144;43.030;25.108;2023-04-19T03:12:42;98806.88;;;10.84;100.00
21960;BME280;11144;43.030;25.108;2023-04-19T03:14:15;98809.56;;;10.83;100.00
21960;BME280;11144;43.030;25.108;2023-04-19T03:15:48;98808.88;;;10.79;100.00
21960;BME280;11144;43.030;25.108;2023-04-19T03:17:25;98805.56;;;10.74;100.00
21960;BME280;11144;43.030;25.108;2023-04-19T03:18:58;98802.13;;;10.72;100.00
21960;BME280;11144;43.030;25.108;2023-04-19T03:20:36;98807.38;;;10.74;100.00
21960;BME280;11144;43.030;25.108;2023-04-19T03:22:09;98806.38;;;10.76;100.00
21960;BME280;11144;43.030;25.108;2023-04-19T03:23:44;98807.00;;;10.81;100.00
21960;BME280;11144;43.030;25.108;2023-04-19T03:25:18;98805.44;;;10.77;100.00
21960;BME280;11144;43.030;25.108;2023-04-19T03:27:02;98806.88;;;10.84;100.00
21960;BME280;11144;43.030;25.108;2023-04-19T03:28:37;98810.28;;;10.86;100.00
21960;BME280;11144;43.030;25.108;2023-04-19T03:30:19;98806.00;;;10.84;100.00
21960;BME280;11144;43.030;25.108;2023-04-19T03:31:53;98816.72;;;10.81;100.00
21960;BME280;11144;43.030;25.108;2023-04-19T03:33:27;98806.13;;;10.81;100.00
21960;BME280;11144;43.030;25.108;2023-04-19T03:35:01;98804.56;;;10.77;100.00
21960;BME280;11144;43.030;25.108;2023-04-19T03:36:34;98802.78;;;10.77;100.00
21960;BME280;11144;43.030;25.108;2023-04-19T03:38:08;98810.84;;;10.74;100.00
21960;BME280;11144;43.030;25.108;2023-04-19T03:39:41;98814.16;;;10.79;100.00
21960;BME280;11144;43.030;25.108;2023-04-19T03:41:19;98812.41;;;10.78;100.00
21960;BME280;11144;43.030;25.108;2023-04-19T03:42:55;98810.44;;;10.83;100.00
21960;BME280;11144;43.030;25.108;2023-04-19T03:44:33;98822.75;;;10.84;100.00
21960;BME280;11144;43.030;25.108;2023-04-19T03:46:09;98807.13;;;10.78;100.00
21960;BME280;11144;43.030;25.108;2023-04-19T03:47:42;98810.59;;;10.80;100.00
21960;BME280;11144;43.030;25.108;2023-04-19T03:49:16;98812.28;;;10.81;100.00
21960;BME280;11144;43.030;25.108;2023-04-19T03:50:53;98817.72;;;10.78;100.00
21960;BME280;11144;43.030;25.108;2023-04-19T03:52:27;98824.81;;;10.78;100.00
21960;BME280;11144;43.030;25.108;2023-04-19T03:54:00;98819.84;;;10.70;100.00
21960;BME280;11144;43.030;25.108;2023-04-19T03:55:34;98824.13;;;10.73;100.00
21960;BME280;11144;43.030;25.108;2023-04-19T03:57:08;98822.22;;;10.76;100.00
21960;BME280;11144;43.030;25.108;2023-04-19T03:58:44;98823.94;;;10.77;100.00
21960;BME280;11144;43.030;25.108;2023-04-19T04:00:19;98821.56;;;10.71;100.00
21960;BME280;11144;43.030;25.108;2023-04-19T04:01:59;98812.97;;;10.66;100.00
21960;BME280;11144;43.030;25.108;2023-04-19T04:03:33;98818.13;;;10.69;100.00
21960;BME280;11144;43.030;25.108;2023-04-19T04:05:08;98828.41;;;10.75;100.00
21960;BME280;11144;43.030;25.108;2023-04-19T04:06:42;98817.13;;;10.72;100.00
21960;BME280;11144;43.030;25.108;2023-04-19T04:08:14;98823.13;;;10.75;100.00
21960;BME280;11144;43.030;25.108;2023-04-19T04:09:48;98819.72;;;10.73;100.00
21960;BME280;11144;43.030;25.108;2023-04-19T04:11:21;98825.78;;;10.75;100.00
21960;BME280;11144;43.030;25.108;2023-04-19T04:12:54;98820.59;;;10.74;100.00
21960;BME280;11144;43.030;25.108;2023-04-19T04:14:42;98824.88;;;10.76;100.00
21960;BME280;11144;43.030;25.108;2023-04-19T04:16:18;98825.72;;;10.77;100.00
21960;BME280;11144;43.030;25.108;2023-04-19T04:17:52;98825.72;;;10.77;100.00
21960;BME280;11144;43.030;25.108;2023-04-19T04:19:25;98823.94;;;10.77;100.00
21960;BME280;11144;43.030;25.108;2023-04-19T04:20:59;98831.88;;;10.77;100.00
21960;BME280;11144;43.030;25.108;2023-04-19T04:22:33;98824.56;;;10.82;100.00
21960;BME280;11144;43.030;25.108;2023-04-19T04:24:07;98829.75;;;10.85;100.00
21960;BME280;11144;43.030;25.108;2023-04-19T04:26:00;98826.03;;;10.89;100.00
21960;BME280;11144;43.030;25.108;2023-04-19T04:27:49;98823.13;;;10.95;100.00
21960;BME280;11144;43.030;25.108;2023-04-19T04:29:24;98834.47;;;10.97;100.00
21960;BME280;11144;43.030;25.108;2023-04-19T04:31:00;98834.41;;;10.99;100.00
21960;BME280;11144;43.030;25.108;2023-04-19T04:32:37;98837.22;;;10.96;100.00
21960;BME280;11144;43.030;25.108;2023-04-19T04:34:12;98832.75;;;10.96;100.00
21960;BME280;11144;43.030;25.108;2023-04-19T04:35:54;98836.34;;;10.95;100.00
21960;BME280;11144;43.030;25.108;2023-04-19T04:37:31;98838.03;;;10.96;100.00
21960;BME280;11144;43.030;25.108;2023-04-19T04:39:05;98831.31;;;10.89;100.00
21960;BME280;11144;43.030;25.108;2023-04-19T04:40:42;98837.28;;;10.94;100.00
21960;BME280;11144;43.030;25.108;2023-04-19T04:42:20;98843.28;;;10.98;100.00
21960;BME280;11144;43.030;25.108;2023-04-19T04:43:53;98840.69;;;10.96;100.00
21960;BME280;11144;43.030;25.108;2023-04-19T04:45:43;98848.91;;;10.90;100.00
21960;BME280;11144;43.030;25.108;2023-04-19T04:47:17;98839.25;;;10.89;100.00
21960;BME280;11144;43.030;25.108;2023-04-19T04:48:57;98851.56;;;10.90;100.00
21960;BME280;11144;43.030;25.108;2023-04-19T04:50:30;98846.59;;;10.83;100.00
21960;BME280;11144;43.030;25.108;2023-04-19T04:52:04;98839.94;;;10.74;100.00
21960;BME280;11144;43.030;25.108;2023-04-19T04:53:47;98847.88;;;10.74;100.00
21960;BME280;11144;43.030;25.108;2023-04-19T04:55:20;98851.56;;;10.70;100.00
21960;BME280;11144;43.030;25.108;2023-04-19T04:56:53;98854.28;;;10.69;100.00
21960;BME280;11144;43.030;25.108;2023-04-19T04:58:27;98856.84;;;10.70;100.00
21960;BME280;11144;43.030;25.108;2023-04-19T05:00:12;98851.56;;;10.70;100.00
21960;BME280;11144;43.030;25.108;2023-04-19T05:01:55;98848.94;;;10.70;100.00
21960;BME280;11144;43.030;25.108;2023-04-19T05:03:29;98848.06;;;10.70;100.00
21960;BME280;11144;43.030;25.108;2023-04-19T05:05:08;98848.00;;;10.71;100.00
21960;BME280;11144;43.030;25.108;2023-04-19T05:06:43;98845.41;;;10.70;100.00
21960;BME280;11144;43.030;25.108;2023-04-19T05:08:22;98851.69;;;10.67;100.00
21960;BME280;11144;43.030;25.108;2023-04-19T05:09:55;98843.72;;;10.69;100.00
21960;BME280;11144;43.030;25.108;2023-04-19T05:11:35;98851.56;;;10.70;100.00
21960;BME280;11144;43.030;25.108;2023-04-19T05:13:09;98855.94;;;10.71;100.00
21960;BME280;11144;43.030;25.108;2023-04-19T05:14:44;98847.09;;;10.72;100.00
21960;BME280;11144;43.030;25.108;2023-04-19T05:16:17;98854.88;;;10.75;100.00
21960;BME280;11144;43.030;25.108;2023-04-19T05:17:52;98856.59;;;10.76;100.00
21960;BME280;11144;43.030;25.108;2023-04-19T05:19:26;98851.31;;;10.76;100.00
21960;BME280;11144;43.030;25.108;2023-04-19T05:21:07;98860.03;;;10.78;100.00
21960;BME280;11144;43.030;25.108;2023-04-19T05:22:42;98859.91;;;10.81;100.00
21960;BME280;11144;43.030;25.108;2023-04-19T05:24:17;98866.88;;;10.82;100.00
21960;BME280;11144;43.030;25.108;2023-04-19T05:25:50;98864.31;;;10.81;100.00
21960;BME280;11144;43.030;25.108;2023-04-19T05:27:26;98858.91;;;10.84;100.00
21960;BME280;11144;43.030;25.108;2023-04-19T05:28:59;98863.47;;;10.80;100.00
21960;BME280;11144;43.030;25.108;2023-04-19T05:30:48;98860.03;;;10.78;100.00
21960;BME280;11144;43.030;25.108;2023-04-19T05:32:21;98862.47;;;10.83;100.00
21960;BME280;11144;43.030;25.108;2023-04-19T05:33:59;98866.88;;;10.82;100.00
21960;BME280;11144;43.030;25.108;2023-04-19T05:35:32;98864.06;;;10.87;100.00
21960;BME280;11144;43.030;25.108;2023-04-19T05:37:07;98862.41;;;10.84;100.00
21960;BME280;11144;43.030;25.108;2023-04-19T05:38:41;98865.31;;;10.78;100.00
21960;BME280;11144;43.030;25.108;2023-04-19T05:40:14;98867.88;;;10.80;100.00
21960;BME280;11144;43.030;25.108;2023-04-19T05:41:48;98868.03;;;10.77;100.00
21960;BME280;11144;43.030;25.108;2023-04-19T05:43:21;98868.75;;;10.80;100.00
21960;BME280;11144;43.030;25.108;2023-04-19T05:44:54;98856.59;;;10.76;100.00
21960;BME280;11144;43.030;25.108;2023-04-19T05:46:28;98863.19;;;10.86;100.00
21960;BME280;11144;43.030;25.108;2023-04-19T05:48:01;98865.69;;;10.89;100.00
21960;BME280;11144;43.030;25.108;2023-04-19T05:50:13;98868.09;;;10.95;100.00
21960;BME280;11144;43.030;25.108;2023-04-19T05:51:55;98873.38;;;10.95;100.00
21960;BME280;11144;43.030;25.108;2023-04-19T05:53:49;98872.31;;;10.99;100.00
21960;BME280;11144;43.030;25.108;2023-04-19T05:55:23;98871.50;;;10.97;100.00
21960;BME280;11144;43.030;25.108;2023-04-19T05:56:56;98867.94;;;10.98;100.00
21960;BME280;11144;43.030;25.108;2023-04-19T05:58:29;98874.94;;;10.99;100.00
21960;BME280;11144;43.030;25.108;2023-04-19T06:00:04;98876.78;;;10.97;100.00
21960;BME280;11144;43.030;25.108;2023-04-19T06:01:53;98873.25;;;10.98;100.00
21960;BME280;11144;43.030;25.108;2023-04-19T06:03:27;98876.66;;;11.00;100.00
21960;BME280;11144;43.030;25.108;2023-04-19T06:05:04;98866.38;;;10.94;100.00
21960;BME280;11144;43.030;25.108;2023-04-19T06:06:42;98878.53;;;10.98;100.00
21960;BME280;11144;43.030;25.108;2023-04-19T06:08:18;98875.88;;;10.98;100.00
21960;BME280;11144;43.030;25.108;2023-04-19T06:09:53;98873.25;;;10.98;100.00
21960;BME280;11144;43.030;25.108;2023-04-19T06:11:26;98875.88;;;10.98;100.00
21960;BME280;11144;43.030;25.108;2023-04-19T06:13:14;98882.81;;;11.01;100.00
21960;BME280;11144;43.030;25.108;2023-04-19T06:14:47;98876.53;;;11.03;100.00
21960;BME280;11144;43.030;25.108;2023-04-19T06:16:21;98877.16;;;11.08;100.00
21960;BME280;11144;43.030;25.108;2023-04-19T06:17:54;98881.38;;;11.12;100.00
21960;BME280;11144;43.030;25.108;2023-04-19T06:19:30;98887.41;;;11.16;100.00
21960;BME280;11144;43.030;25.108;2023-04-19T06:21:04;98877.53;;;11.19;100.00
21960;BME280;11144;43.030;25.108;2023-04-19T06:22:41;98877.41;;;11.22;100.00
21960;BME280;11144;43.030;25.108;2023-04-19T06:24:15;98886.41;;;11.18;100.00
21960;BME280;11144;43.030;25.108;2023-04-19T06:25:50;98880.19;;;11.19;100.00
21960;BME280;11144;43.030;25.108;2023-04-19T06:27:23;98885.41;;;11.21;100.00
21960;BME280;11144;43.030;25.108;2023-04-19T06:28:57;98896.75;;;11.24;100.00
21960;BME280;11144;43.030;25.108;2023-04-19T06:30:30;98882.56;;;11.25;100.00
21960;BME280;11144;43.030;25.108;2023-04-19T06:32:04;98878.41;;;11.20;100.00
21960;BME280;11144;43.030;25.108;2023-04-19T06:33:37;98884.56;;;11.20;100.00
21960;BME280;11144;43.030;25.108;2023-04-19T06:35:10;98891.50;;;11.23;100.00
21960;BME280;11144;43.030;25.108;2023-04-19T06:36:44;98893.28;;;11.22;100.00
21960;BME280;11144;43.030;25.108;2023-04-19T06:38:17;98896.88;;;11.21;100.00
21960;BME280;11144;43.030;25.108;2023-04-19T06:39:50;98895.16;;;11.20;100.00
21960;BME280;11144;43.030;25.108;2023-04-19T06:41:25;98893.41;;;11.19;100.00
21960;BME280;11144;43.030;25.108;2023-04-19T06:42:58;98892.72;;;11.16;100.00
21960;BME280;11144;43.030;25.108;2023-04-19T06:44:32;98896.13;;;11.18;100.00
21960;BME280;11144;43.030;25.108;2023-04-19T06:46:05;98888.41;;;11.13;100.00
21960;BME280;11144;43.030;25.108;2023-04-19T06:47:38;98901.41;;;11.18;100.00
21960;BME280;11144;43.030;25.108;2023-04-19T06:49:12;98904.88;;;11.20;100.00
21960;BME280;11144;43.030;25.108;2023-04-19T06:50:45;98905.75;;;11.20;100.00
21960;BME280;11144;43.030;25.108;2023-04-19T06:52:18;98905.75;;;11.20;100.00
21960;BME280;11144;43.030;25.108;2023-04-19T06:53:53;98904.94;;;11.18;100.00
21960;BME280;11144;43.030;25.108;2023-04-19T06:55:26;98901.91;;;11.07;100.00
21960;BME280;11144;43.030;25.108;2023-04-19T06:57:00;98896.50;;;11.10;100.00
21960;BME280;11144;43.030;25.108;2023-04-19T06:58:34;98897.13;;;11.15;100.00
21960;BME280;11144;43.030;25.108;2023-04-19T07:00:09;98898.72;;;11.19;100.00
21960;BME280;11144;43.030;25.108;2023-04-19T07:01:42;98898.56;;;11.22;100.00
21960;BME280;11144;43.030;25.108;2023-04-19T07:03:16;98900.28;;;11.23;100.00
21960;BME280;11144;43.030;25.108;2023-04-19T07:04:50;98903.72;;;11.25;100.00
21960;BME280;11144;43.030;25.108;2023-04-19T07:06:23;98898.50;;;11.24;100.00
21960;BME280;11144;43.030;25.108;2023-04-19T07:07:57;98902.03;;;11.24;100.00
21960;BME280;11144;43.030;25.108;2023-04-19T07:09:31;98907.88;;;11.31;100.00
21960;BME280;11144;43.030;25.108;2023-04-19T07:11:04;98901.59;;;11.33;100.00
21960;BME280;11144;43.030;25.108;2023-04-19T07:12:39;98890.88;;;11.36;100.00
21960;BME280;11144;43.030;25.108;2023-04-19T07:14:12;98905.47;;;11.45;100.00
21960;BME280;11144;43.030;25.108;2023-04-19T07:15:46;98908.06;;;11.46;100.00
21960;BME280;11144;43.030;25.108;2023-04-19T07:17:19;98910.56;;;11.49;100.00
21960;BME280;11144;43.030;25.108;2023-04-19T07:18:53;98910.22;;;11.38;100.00
21960;BME280;11144;43.030;25.108;2023-04-19T07:20:26;98911.03;;;11.39;100.00
21960;BME280;11144;43.030;25.108;2023-04-19T07:22:00;98918.78;;;11.43;100.00
21960;BME280;11144;43.030;25.108;2023-04-19T07:23:34;98911.63;;;11.45;100.00
21960;BME280;11144;43.030;25.108;2023-04-19T07:25:08;98912.41;;;11.47;100.00
21960;BME280;11144;43.030;25.108;2023-04-19T07:26:41;98913.22;;;11.49;100.00
21960;BME280;11144;43.030;25.108;2023-04-19T07:28:16;98916.56;;;11.53;100.00
21960;BME280;11144;43.030;25.108;2023-04-19T07:29:51;98921.66;;;11.57;100.00
21960;BME280;11144;43.030;25.108;2023-04-19T07:31:25;98917.38;;;11.55;100.00
21960;BME280;11144;43.030;25.108;2023-04-19T07:32:58;98912.78;;;11.58;100.00
21960;BME280;11144;43.030;25.108;2023-04-19T07:34:32;98917.13;;;11.59;100.00
21960;BME280;11144;43.030;25.108;2023-04-19T07:36:06;98923.13;;;11.64;100.00
21960;BME280;11144;43.030;25.108;2023-04-19T07:37:39;98917.97;;;11.61;100.00
21960;BME280;11144;43.030;25.108;2023-04-19T07:39:13;98917.66;;;11.67;100.00
21960;BME280;11144;43.030;25.108;2023-04-19T07:40:46;98923.50;;;11.75;100.00
21960;BME280;11144;43.030;25.108;2023-04-19T07:42:20;98915.53;;;11.75;100.00
21960;BME280;11144;43.030;25.108;2023-04-19T07:43:54;98917.59;;;11.69;100.00
21960;BME280;11144;43.030;25.108;2023-04-19T07:45:29;98921.81;;;11.73;100.00
21960;BME280;11144;43.030;25.108;2023-04-19T07:47:02;98917.53;;;11.70;100.00
21960;BME280;11144;43.030;25.108;2023-04-19T07:48:36;98926.13;;;11.75;100.00
21960;BME280;11144;43.030;25.108;2023-04-19T07:50:10;98923.50;;;11.75;100.00
21960;BME280;11144;43.030;25.108;2023-04-19T07:51:43;98920.66;;;11.78;100.00
21960;BME280;11144;43.030;25.108;2023-04-19T07:53:17;98916.94;;;11.82;100.00
21960;BME280;11144;43.030;25.108;2023-04-19T07:54:50;98916.53;;;11.91;100.00
21960;BME280;11144;43.030;25.108;2023-04-19T07:56:24;98915.94;;;12.03;100.00
21960;BME280;11144;43.030;25.108;2023-04-19T07:57:58;98913.00;;;12.09;100.00
21960;BME280;11144;43.030;25.108;2023-04-19T07:59:33;98910.19;;;12.12;100.00
21960;BME280;11144;43.030;25.108;2023-04-19T08:01:08;98912.16;;;12.26;100.00
21960;BME280;11144;43.030;25.108;2023-04-19T08:02:42;98919.72;;;12.33;100.00
21960;BME280;11144;43.030;25.108;2023-04-19T08:04:17;98908.69;;;12.42;100.00
21960;BME280;11144;43.030;25.108;2023-04-19T08:05:52;98910.56;;;12.57;100.00
21960;BME280;11144;43.030;25.108;2023-04-19T08:07:25;98917.13;;;12.67;100.00
21960;BME280;11144;43.030;25.108;2023-04-19T08:08:58;98904.16;;;12.61;100.00
21960;BME280;11144;43.030;25.108;2023-04-19T08:10:32;98897.94;;;12.45;100.00